TAF Text Data
IDs:
Format:
Raw Decoded Include METAR

Data at: 0410 UTC 23 Oct 2018

KECP 222322Z 2300/2324 04004KT P6SM BKN100
  FM231600 02005KT P6SM VCSH BKN045 OVC100